Time;durP1;ratioP1;P1;durP2;ratioP2;P2;SDS_P1;SDS_P2;PMS_P1;PMS_P2;Temp;Humidity;BMP_temperature;BMP_pressure;BME280_temperature;BME280_humidity;BME280_pressure;Samples;Min_cycle;Max_cycle;Signal;HPM_P1;HPM_P2
2023/05/22 00:00:20;;;;;;;14.80;7.05;;;21.30;91.70;;;;;;5010586;28;20088;-70
2023/05/22 00:02:45;;;;;;;10.85;7.13;;;21.30;91.90;;;;;;5012127;28;20087;-70
2023/05/22 00:05:13;;;;;;;12.80;6.85;;;21.30;91.70;;;;;;5011647;28;20033;-69
2023/05/22 00:07:39;;;;;;;;;;;21.30;91.50;;;;;;5012055;28;20125;-71
2023/05/22 00:10:06;;;;;;;12.23;7.47;;;21.20;91.70;;;;;;5011315;28;20012;-71
2023/05/22 00:12:31;;;;;;;12.20;7.28;;;21.20;91.80;;;;;;5010413;28;20099;-71
2023/05/22 00:14:57;;;;;;;10.00;7.18;;;21.20;91.70;;;;;;5010939;28;20391;-69
2023/05/22 00:17:25;;;;;;;10.98;7.55;;;21.20;91.90;;;;;;5011297;28;20487;-69
2023/05/22 00:19:52;;;;;;;17.45;7.10;;;21.20;91.90;;;;;;5011322;28;20033;-69
2023/05/22 00:22:18;;;;;;;12.32;6.47;;;21.10;92.00;;;;;;5010272;28;20041;-70
2023/05/22 00:24:44;;;;;;;10.40;6.93;;;21.10;92.00;;;;;;5010144;28;20034;-70
2023/05/22 00:27:10;;;;;;;8.85;6.68;;;21.10;92.00;;;;;;5012102;28;20051;-70
2023/05/22 00:29:35;;;;;;;9.63;7.40;;;21.10;92.00;;;;;;5011032;28;20468;-71
2023/05/22 00:32:01;;;;;;;12.70;7.20;;;21.10;92.10;;;;;;5010933;28;20104;-70
2023/05/22 00:34:27;;;;;;;10.15;6.95;;;21.10;92.10;;;;;;5011034;28;20134;-71
2023/05/22 00:36:52;;;;;;;13.35;7.00;;;21.00;92.20;;;;;;5010018;28;20369;-71
2023/05/22 00:39:18;;;;;;;9.07;6.97;;;21.00;91.90;;;;;;5011247;28;20562;-69
2023/05/22 00:41:43;;;;;;;12.25;7.03;;;21.00;92.20;;;;;;5011489;28;20034;-70
2023/05/22 00:44:10;;;;;;;10.63;7.20;;;21.00;92.10;;;;;;5010908;28;20468;-72
2023/05/22 00:46:36;;;;;;;21.23;7.80;;;21.00;92.20;;;;;;5011038;28;20030;-71
2023/05/22 00:49:02;;;;;;;11.63;7.25;;;21.00;92.10;;;;;;5010774;28;20419;-70
2023/05/22 00:51:28;;;;;;;9.88;6.80;;;21.00;92.20;;;;;;5010817;28;20030;-70
2023/05/22 00:53:54;;;;;;;10.65;6.55;;;20.90;92.10;;;;;;5010577;28;20407;-69
2023/05/22 00:56:20;;;;;;;14.25;7.85;;;20.90;92.00;;;;;;5010824;28;20376;-70
2023/05/22 00:58:46;;;;;;;11.82;7.30;;;20.90;92.10;;;;;;5011087;28;20034;-69
2023/05/22 01:01:12;;;;;;;15.23;6.88;;;20.90;92.20;;;;;;5010975;28;20026;-70
2023/05/22 01:03:45;;;;;;;10.52;7.05;;;20.90;92.10;;;;;;5010663;28;20030;-70
2023/05/22 01:06:16;;;;;;;10.13;6.95;;;20.90;92.20;;;;;;5011588;28;20026;-70
2023/05/22 01:08:42;;;;;;;10.68;6.38;;;20.90;92.10;;;;;;5011284;28;20034;-70
2023/05/22 01:11:24;;;;;;;12.43;6.90;;;20.80;92.10;;;;;;5010702;28;20049;-71
2023/05/22 01:13:55;;;;;;;11.75;7.15;;;20.80;92.20;;;;;;5010672;28;20030;-70
2023/05/22 01:16:21;;;;;;;10.80;6.43;;;20.80;92.20;;;;;;5010570;28;20064;-71
2023/05/22 01:19:01;;;;;;;8.93;6.43;;;20.80;92.20;;;;;;5010822;28;20050;-69
2023/05/22 01:21:39;;;;;;;8.60;5.82;;;20.80;92.30;;;;;;5010835;28;20030;-70
2023/05/22 01:24:46;;;;;;;9.95;6.38;;;20.80;92.30;;;;;;5010822;28;20036;-70
2023/05/22 01:27:53;;;;;;;12.60;6.65;;;20.70;92.20;;;;;;5010603;28;20080;-71
2023/05/22 01:30:43;;;;;;;9.80;6.30;;;20.70;92.30;;;;;;5010306;28;20042;-70
2023/05/22 01:33:13;;;;;;;13.02;6.70;;;20.70;92.20;;;;;;4987134;28;20058;-70
2023/05/22 01:35:40;;;;;;;10.27;6.78;;;20.60;92.30;;;;;;4978751;28;20042;-69
2023/05/22 01:38:07;;;;;;;9.00;6.72;;;20.60;92.20;;;;;;4991195;28;20030;-70
2023/05/22 01:40:33;;;;;;;11.50;6.38;;;20.60;92.30;;;;;;4991099;28;20034;-69
2023/05/22 01:43:00;;;;;;;10.13;6.95;;;20.60;92.40;;;;;;4991140;28;20069;-69
2023/05/22 01:45:25;;;;;;;9.98;6.10;;;20.50;92.30;;;;;;4990837;28;20034;-70
2023/05/22 01:47:51;;;;;;;11.27;6.55;;;20.50;92.30;;;;;;4991586;28;20106;-70
2023/05/22 01:50:17;;;;;;;14.52;6.60;;;20.50;92.30;;;;;;4989176;28;20041;-68
2023/05/22 01:53:11;;;;;;;12.27;6.70;;;20.40;92.30;;;;;;4989632;28;20026;-70
2023/05/22 01:55:54;;;;;;;10.73;6.85;;;20.40;92.40;;;;;;4990996;28;20403;-70
2023/05/22 01:58:28;;;;;;;12.68;6.47;;;20.30;92.50;;;;;;4981590;28;20035;-70
2023/05/22 02:00:57;;;;;;;10.57;6.35;;;20.30;92.50;;;;;;4970294;28;20423;-70
2023/05/22 02:03:28;;;;;;;11.32;6.57;;;20.30;92.50;;;;;;4971572;28;20173;-69
2023/05/22 02:05:58;;;;;;;9.75;6.65;;;20.20;92.50;;;;;;4973863;28;20027;-71
2023/05/22 02:08:25;;;;;;;7.75;6.20;;;20.20;92.60;;;;;;4974826;28;20038;-69
2023/05/22 02:10:54;;;;;;;11.18;6.32;;;20.20;92.70;;;;;;4974931;28;20050;-71
2023/05/22 02:13:21;;;;;;;14.15;6.88;;;20.10;92.70;;;;;;4975068;28;20035;-71
2023/05/22 02:15:47;;;;;;;11.77;6.38;;;20.00;92.90;;;;;;4974894;28;20026;-70
2023/05/22 02:18:13;;;;;;;11.05;6.25;;;20.00;92.90;;;;;;4974709;28;20442;-70
2023/05/22 02:20:40;;;;;;;10.63;6.47;;;20.00;92.90;;;;;;4975069;28;20046;-71
2023/05/22 02:23:06;;;;;;;8.05;5.82;;;20.00;92.80;;;;;;4974458;28;20049;-71
2023/05/22 02:25:31;;;;;;;8.55;6.60;;;20.00;92.80;;;;;;4974584;28;20031;-70
2023/05/22 02:27:57;;;;;;;11.13;6.50;;;20.00;92.70;;;;;;4974584;28;20054;-70
2023/05/22 02:30:23;;;;;;;7.80;5.80;;;19.90;92.90;;;;;;4974261;28;20030;-71
2023/05/22 02:32:49;;;;;;;11.13;6.35;;;19.90;93.00;;;;;;4992860;28;20104;-71
2023/05/22 02:35:14;;;;;;;9.05;6.15;;;19.80;92.90;;;;;;4993698;28;20040;-71
2023/05/22 02:37:41;;;;;;;10.85;6.57;;;19.80;93.10;;;;;;4992729;28;20121;-71
2023/05/22 02:40:08;;;;;;;9.93;6.25;;;19.80;93.00;;;;;;4993723;28;20050;-70
2023/05/22 02:42:34;;;;;;;8.82;6.15;;;19.80;92.90;;;;;;4993600;28;20041;-71
2023/05/22 02:45:00;;;;;;;10.18;5.80;;;19.80;92.60;;;;;;4994175;28;20030;-72
2023/05/22 02:47:26;;;;;;;8.85;6.13;;;19.80;92.60;;;;;;4993502;28;20453;-71
2023/05/22 02:49:52;;;;;;;9.20;5.68;;;19.80;92.80;;;;;;4993542;28;20084;-71
2023/05/22 02:52:17;;;;;;;9.05;5.75;;;19.70;93.00;;;;;;4993335;28;20038;-71
2023/05/22 02:54:43;;;;;;;11.05;6.07;;;19.60;93.00;;;;;;4993526;28;20035;-70
2023/05/22 02:57:09;;;;;;;8.00;5.57;;;19.70;92.80;;;;;;4993868;28;20034;-71
2023/05/22 02:59:35;;;;;;;8.70;5.70;;;19.70;92.70;;;;;;4993336;28;20034;-71
2023/05/22 03:02:01;;;;;;;10.00;6.25;;;19.70;92.70;;;;;;4993248;28;20077;-71
2023/05/22 03:04:28;;;;;;;6.80;5.47;;;19.70;92.60;;;;;;4993328;28;20061;-71
2023/05/22 03:06:54;;;;;;;8.38;6.00;;;19.70;92.70;;;;;;4993123;28;20384;-71
2023/05/22 03:09:19;;;;;;;12.07;5.95;;;19.60;92.70;;;;;;4993096;28;20019;-69
2023/05/22 03:11:45;;;;;;;10.25;6.05;;;19.60;92.60;;;;;;4993470;28;20034;-71
2023/05/22 03:14:11;;;;;;;9.07;5.90;;;19.60;92.50;;;;;;4992784;28;20023;-72
2023/05/22 03:16:37;;;;;;;9.10;5.72;;;19.60;92.60;;;;;;4991268;28;20038;-71
2023/05/22 03:19:13;;;;;;;8.30;5.85;;;19.60;92.60;;;;;;4992879;28;20058;-71
2023/05/22 03:21:40;;;;;;;9.73;6.15;;;19.60;92.60;;;;;;4992883;28;20038;-71
2023/05/22 03:24:06;;;;;;;9.82;5.65;;;19.60;92.60;;;;;;4993077;28;20104;-71
2023/05/22 03:26:32;;;;;;;9.65;6.15;;;19.50;92.60;;;;;;4992922;28;20116;-71
2023/05/22 03:28:58;;;;;;;11.77;5.75;;;19.50;92.50;;;;;;4992657;28;20057;-70
2023/05/22 03:31:25;;;;;;;8.05;5.80;;;19.50;92.60;;;;;;4991213;28;20542;-69
2023/05/22 03:33:51;;;;;;;7.72;4.97;;;19.50;92.70;;;;;;4992600;28;20042;-70
2023/05/22 03:36:18;;;;;;;10.95;5.80;;;19.50;92.60;;;;;;4992611;28;20041;-70
2023/05/22 03:38:43;;;;;;;10.82;5.40;;;19.40;92.60;;;;;;4993271;28;20460;-70
2023/05/22 03:41:09;;;;;;;10.05;6.32;;;19.40;92.60;;;;;;4992434;28;20173;-71
2023/05/22 03:43:34;;;;;;;8.45;5.53;;;19.40;92.50;;;;;;4992431;28;20380;-70
2023/05/22 03:46:00;;;;;;;7.50;5.22;;;19.40;92.50;;;;;;4992495;28;20030;-70
2023/05/22 03:48:26;;;;;;;8.50;5.63;;;19.40;92.60;;;;;;4992396;28;20108;-71
2023/05/22 03:50:51;;;;;;;9.40;5.28;;;19.40;92.80;;;;;;4992703;28;20030;-71
2023/05/22 03:53:17;;;;;;;11.52;5.75;;;19.40;92.70;;;;;;4992248;28;20045;-71
2023/05/22 03:55:43;;;;;;;9.48;5.70;;;19.30;92.60;;;;;;4992232;28;20041;-71
2023/05/22 03:58:08;;;;;;;9.35;6.13;;;19.40;92.70;;;;;;4999899;28;20065;-71
2023/05/22 04:00:34;;;;;;;11.27;5.75;;;19.50;92.90;;;;;;5008740;28;20040;-71
2023/05/22 04:03:00;;;;;;;10.60;6.05;;;19.30;92.70;;;;;;4992386;28;20042;-71
2023/05/22 04:05:26;;;;;;;11.95;6.63;;;19.30;92.90;;;;;;5010188;28;20433;-71
2023/05/22 04:07:52;;;;;;;6.20;5.25;;;19.30;93.00;;;;;;4997951;28;20365;-71
2023/05/22 04:10:21;;;;;;;10.98;6.00;;;19.20;93.00;;;;;;5000838;28;20034;-70
2023/05/22 04:12:46;;;;;;;9.30;5.40;;;19.20;93.00;;;;;;5006879;28;20035;-71
2023/05/22 04:15:12;;;;;;;10.88;6.10;;;19.30;93.00;;;;;;4991873;28;20441;-69
2023/05/22 04:17:40;;;;;;;13.45;5.78;;;19.20;93.00;;;;;;5011809;28;20384;-70
2023/05/22 04:20:07;;;;;;;9.82;5.28;;;19.20;93.00;;;;;;4996254;28;20062;-72
2023/05/22 04:22:33;;;;;;;8.05;5.25;;;19.20;93.00;;;;;;5002659;28;20034;-71
2023/05/22 04:24:58;;;;;;;9.77;5.22;;;19.30;92.90;;;;;;5004806;28;20042;-71
2023/05/22 04:27:25;;;;;;;12.15;5.90;;;19.30;93.00;;;;;;4993359;28;20093;-71
2023/05/22 04:29:51;;;;;;;7.97;5.55;;;19.30;93.00;;;;;;5011834;28;20061;-72
2023/05/22 04:32:20;;;;;;;8.23;5.75;;;19.20;93.00;;;;;;5009090;28;20050;-72
2023/05/22 04:34:51;;;;;;;12.18;6.03;;;19.20;93.10;;;;;;5023838;28;20482;-70
2023/05/22 04:37:19;;;;;;;12.65;5.75;;;19.30;93.10;;;;;;5021717;28;20044;-70
2023/05/22 04:39:45;;;;;;;16.63;6.32;;;19.30;93.00;;;;;;5015472;28;20120;-71
2023/05/22 04:42:14;;;;;;;14.82;5.63;;;19.20;93.00;;;;;;5013662;28;20494;-71
2023/05/22 04:44:41;;;;;;;16.95;6.30;;;19.30;93.10;;;;;;5030771;28;20042;-70
2023/05/22 04:47:10;;;;;;;20.50;6.50;;;19.20;93.10;;;;;;5030572;28;20034;-70
2023/05/22 04:49:41;;;;;;;15.35;6.07;;;19.40;93.00;;;;;;5030561;28;20049;-71
2023/05/22 04:52:06;;;;;;;16.83;7.30;;;19.40;92.90;;;;;;5030696;28;20049;-71
2023/05/22 04:54:33;;;;;;;10.10;5.40;;;19.40;93.00;;;;;;5013076;28;20046;-71
2023/05/22 04:57:01;;;;;;;13.98;5.70;;;19.30;93.10;;;;;;5031159;28;20023;-71
2023/05/22 04:59:27;;;;;;;19.02;5.55;;;19.40;93.00;;;;;;5030623;28;20411;-71
2023/05/22 05:01:52;;;;;;;13.60;5.97;;;19.50;93.00;;;;;;5030503;28;20094;-71
2023/05/22 05:04:18;;;;;;;16.85;5.80;;;19.50;92.90;;;;;;5030630;28;20046;-71
2023/05/22 05:06:44;;;;;;;8.63;5.75;;;19.50;92.80;;;;;;5030460;28;20123;-70
2023/05/22 05:09:10;;;;;;;11.63;6.15;;;19.60;92.70;;;;;;5013684;28;20030;-72
2023/05/22 05:11:35;;;;;;;14.50;5.55;;;19.50;92.70;;;;;;5030780;28;20175;-71
2023/05/22 05:14:01;;;;;;;13.50;6.07;;;19.50;92.70;;;;;;5013178;28;20030;-70
2023/05/22 05:16:27;;;;;;;19.90;7.15;;;19.50;92.70;;;;;;5030642;28;20040;-72
2023/05/22 05:18:54;;;;;;;12.85;5.97;;;19.40;92.80;;;;;;5030520;28;20426;-73
2023/05/22 05:21:20;;;;;;;12.70;6.17;;;19.50;92.80;;;;;;5030516;28;20021;-71
2023/05/22 05:23:46;;;;;;;12.18;5.68;;;19.50;92.80;;;;;;5013294;28;20026;-70
2023/05/22 05:26:12;;;;;;;10.98;6.00;;;19.50;92.80;;;;;;5030653;28;20034;-70
2023/05/22 05:28:38;;;;;;;7.15;5.20;;;19.60;92.70;;;;;;5030316;28;20368;-69
2023/05/22 05:31:03;;;;;;;14.60;5.40;;;19.60;92.50;;;;;;5030164;28;20076;-71
2023/05/22 05:33:29;;;;;;;16.23;5.60;;;19.70;92.50;;;;;;5030384;28;20025;-71
2023/05/22 05:35:55;;;;;;;13.90;5.97;;;19.80;92.50;;;;;;5030725;28;20414;-71
2023/05/22 05:38:21;;;;;;;17.33;5.50;;;19.80;92.40;;;;;;5030213;28;20111;-70
2023/05/22 05:40:47;;;;;;;15.15;5.47;;;19.80;92.40;;;;;;5032550;28;20028;-72
2023/05/22 05:43:16;;;;;;;22.02;6.47;;;19.80;92.40;;;;;;5016630;28;20056;-70
2023/05/22 05:45:42;;;;;;;12.95;6.15;;;19.80;92.40;;;;;;5016088;28;20036;-71
2023/05/22 05:48:08;;;;;;;16.63;6.00;;;19.80;92.50;;;;;;5034339;28;20083;-71
2023/05/22 05:50:34;;;;;;;18.58;6.05;;;19.90;92.40;;;;;;5033677;28;20095;-71
2023/05/22 05:53:00;;;;;;;11.00;6.13;;;20.00;92.30;;;;;;5015968;28;20029;-70
2023/05/22 05:55:26;;;;;;;15.50;6.70;;;20.00;92.50;;;;;;5033726;28;20029;-70
2023/05/22 05:57:53;;;;;;;19.40;5.97;;;20.00;92.40;;;;;;5033495;28;20375;-70
2023/05/22 06:00:19;;;;;;;12.57;5.75;;;20.00;92.40;;;;;;5016100;28;20033;-71
2023/05/22 06:02:44;;;;;;;12.57;5.63;;;20.10;92.40;;;;;;5033744;28;20028;-71
2023/05/22 06:05:10;;;;;;;25.75;6.20;;;20.20;92.20;;;;;;5033344;28;20048;-71
2023/05/22 06:07:39;;;;;;;14.35;5.63;;;20.30;92.20;;;;;;5033826;28;20076;-72
2023/05/22 06:10:07;;;;;;;16.48;6.38;;;20.40;92.00;;;;;;5033488;28;20426;-70
2023/05/22 06:12:32;;;;;;;11.20;6.90;;;20.50;92.00;;;;;;5033547;28;20065;-71
2023/05/22 06:14:58;;;;;;;14.73;5.80;;;20.40;92.00;;;;;;5034119;28;20053;-71
2023/05/22 06:17:24;;;;;;;12.70;5.57;;;20.40;92.10;;;;;;5033554;28;20041;-74
2023/05/22 06:19:50;;;;;;;15.95;6.45;;;20.50;92.10;;;;;;5033319;28;20056;-73
2023/05/22 06:22:16;;;;;;;23.23;5.80;;;20.50;92.10;;;;;;5033291;28;20069;-72
2023/05/22 06:24:41;;;;;;;15.48;5.80;;;20.60;92.10;;;;;;5015707;28;20037;-73
2023/05/22 06:27:07;;;;;;;9.13;5.30;;;20.80;92.10;;;;;;5033636;28;20440;-70
2023/05/22 06:29:33;;;;;;;12.98;5.57;;;20.80;91.90;;;;;;5033409;28;20332;-70
2023/05/22 06:31:59;;;;;;;19.15;6.28;;;21.00;92.20;;;;;;5032783;28;20482;-72
2023/05/22 06:34:26;;;;;;;18.00;6.25;;;21.00;91.90;;;;;;5032994;28;20429;-71
2023/05/22 06:36:51;;;;;;;12.97;5.70;;;21.00;91.70;;;;;;5015491;28;20480;-70
2023/05/22 06:39:18;;;;;;;11.73;5.78;;;21.20;91.50;;;;;;5032975;28;20301;-71
2023/05/22 06:41:44;;;;;;;19.38;5.60;;;21.30;91.30;;;;;;5033554;28;20098;-71
2023/05/22 06:44:11;;;;;;;9.20;5.10;;;21.20;91.40;;;;;;5032823;28;20072;-71
2023/05/22 06:46:36;;;;;;;24.52;8.07;;;21.20;91.30;;;;;;5032960;28;20514;-71
2023/05/22 06:49:02;;;;;;;33.65;9.95;;;21.20;91.30;;;;;;5033137;28;20125;-73
2023/05/22 06:51:28;;;;;;;29.13;12.68;;;21.20;91.20;;;;;;5031478;28;20342;-71
2023/05/22 06:53:55;;;;;;;20.88;8.95;;;21.20;91.20;;;;;;5033044;28;20022;-72
2023/05/22 06:56:21;;;;;;;20.83;5.95;;;21.20;91.20;;;;;;5032926;28;20448;-72
2023/05/22 06:58:47;;;;;;;15.27;5.35;;;21.30;91.30;;;;;;5032534;28;20455;-73
2023/05/22 07:01:13;;;;;;;9.88;6.03;;;21.40;91.20;;;;;;5032671;28;20049;-72
2023/05/22 07:03:38;;;;;;;16.33;7.13;;;21.50;91.10;;;;;;5032573;28;20111;-72
2023/05/22 07:06:04;;;;;;;13.82;5.97;;;21.60;91.00;;;;;;5032750;28;20050;-72
2023/05/22 07:08:30;;;;;;;9.98;5.30;;;21.70;91.00;;;;;;5032410;28;20349;-73
2023/05/22 07:10:56;;;;;;;10.55;5.35;;;21.70;90.80;;;;;;5032219;28;20107;-72
2023/05/22 07:13:23;;;;;;;16.63;5.80;;;21.70;90.70;;;;;;5032517;28;20029;-73
2023/05/22 07:15:49;;;;;;;10.55;5.50;;;21.80;91.30;;;;;;5014747;28;20033;-71
2023/05/22 07:18:15;;;;;;;13.82;5.30;;;21.70;91.00;;;;;;5032298;28;20033;-71
2023/05/22 07:20:40;;;;;;;11.77;5.60;;;21.80;91.00;;;;;;5032628;28;20355;-73
2023/05/22 07:23:07;;;;;;;14.15;6.38;;;21.90;90.90;;;;;;5014548;28;20103;-70
2023/05/22 07:25:33;;;;;;;10.75;5.53;;;21.90;90.90;;;;;;5032140;28;20072;-71
2023/05/22 07:28:00;;;;;;;8.70;4.65;;;22.00;90.90;;;;;;5014672;28;20064;-71
2023/05/22 07:30:26;;;;;;;6.20;4.97;;;22.10;90.90;;;;;;5032146;28;20418;-71
2023/05/22 07:32:52;;;;;;;7.50;5.25;;;22.30;90.80;;;;;;5032207;28;20037;-69
2023/05/22 07:35:19;;;;;;;15.85;5.30;;;22.40;90.50;;;;;;5032079;28;20029;-71
2023/05/22 07:37:44;;;;;;;14.93;5.60;;;22.30;90.70;;;;;;5032089;28;20472;-72
2023/05/22 07:40:10;;;;;;;11.60;5.53;;;22.30;90.80;;;;;;5031969;28;20067;-71
2023/05/22 07:42:37;;;;;;;9.07;5.55;;;22.40;90.70;;;;;;5031619;28;20032;-71
2023/05/22 07:45:03;;;;;;;10.68;5.20;;;22.50;90.80;;;;;;5032466;28;20018;-71
2023/05/22 07:47:28;;;;;;;8.45;5.25;;;22.50;90.80;;;;;;5031757;28;20033;-71
2023/05/22 07:49:54;;;;;;;11.45;5.28;;;22.60;90.70;;;;;;5031656;28;20029;-70
2023/05/22 07:52:20;;;;;;;14.00;5.65;;;22.90;90.80;;;;;;5013807;28;20041;-69
2023/05/22 07:54:46;;;;;;;9.55;5.50;;;23.10;90.50;;;;;;5031420;28;20349;-70
2023/05/22 07:57:12;;;;;;;10.18;5.72;;;23.30;90.30;;;;;;5031917;28;20030;-69
2023/05/22 07:59:38;;;;;;;13.63;5.55;;;23.50;90.10;;;;;;5031220;28;20551;-70
2023/05/22 08:02:04;;;;;;;8.63;4.93;;;23.70;90.40;;;;;;5031440;28;20450;-71
2023/05/22 08:04:29;;;;;;;12.00;5.55;;;23.80;89.60;;;;;;5030952;28;20040;-73
2023/05/22 08:06:56;;;;;;;8.10;4.90;;;23.90;89.10;;;;;;5031197;28;20121;-73
2023/05/22 08:09:21;;;;;;;11.25;5.28;;;24.10;89.60;;;;;;5013588;28;20083;-72
2023/05/22 08:11:47;;;;;;;11.07;5.90;;;24.30;89.80;;;;;;5031553;28;20026;-72
2023/05/22 08:14:13;;;;;;;13.82;5.38;;;24.60;88.90;;;;;;5030991;28;20291;-70
2023/05/22 08:16:39;;;;;;;8.88;5.15;;;24.90;89.50;;;;;;5013546;28;20495;-70
2023/05/22 08:19:08;;;;;;;9.50;4.88;;;25.50;88.50;;;;;;5031054;28;20064;-71
2023/05/22 08:21:34;;;;;;;11.50;5.65;;;25.90;86.40;;;;;;5031627;28;20454;-72
2023/05/22 08:24:00;;;;;;;7.95;5.35;;;26.70;86.50;;;;;;5031508;28;20431;-71
2023/05/22 08:26:26;;;;;;;8.57;5.15;;;27.50;82.60;;;;;;5030954;28;20045;-70
2023/05/22 08:28:52;;;;;;;15.70;5.10;;;28.10;82.20;;;;;;5030877;28;20068;-70
2023/05/22 08:31:18;;;;;;;8.77;5.03;;;28.80;78.00;;;;;;5013084;28;20046;-71
2023/05/22 08:33:43;;;;;;;7.35;5.15;;;29.30;79.70;;;;;;5031056;28;20041;-71
2023/05/22 08:36:09;;;;;;;10.80;4.78;;;30.20;76.80;;;;;;5031242;28;20388;-71
2023/05/22 08:38:35;;;;;;;10.85;5.03;;;30.50;73.70;;;;;;5030874;28;20038;-72
2023/05/22 08:41:01;;;;;;;10.73;5.57;;;31.40;74.50;;;;;;5031012;28;20087;-72
2023/05/22 08:43:28;;;;;;;10.80;5.35;;;32.10;69.50;;;;;;5013261;28;20029;-73
2023/05/22 08:46:04;;;;;;;11.27;5.30;;;32.70;69.80;;;;;;5030653;28;20525;-71
2023/05/22 08:48:31;;;;;;;9.52;4.88;;;33.30;66.40;;;;;;5030594;28;20028;-72
2023/05/22 08:51:04;;;;;;;10.93;5.10;;;33.70;66.00;;;;;;5031328;28;20053;-70
2023/05/22 08:53:36;;;;;;;10.57;5.25;;;34.40;65.00;;;;;;5013069;28;20132;-72
2023/05/22 08:56:04;;;;;;;7.07;4.90;;;34.80;62.50;;;;;;5030593;28;20061;-71
2023/05/22 08:58:33;;;;;;;16.70;8.32;;;34.90;60.80;;;;;;5030679;28;20057;-71
2023/05/22 09:00:59;;;;;;;11.88;5.72;;;34.80;59.60;;;;;;5030329;28;20045;-71
2023/05/22 09:03:33;;;;;;;11.18;5.35;;;34.30;60.90;;;;;;5030407;28;20053;-69
2023/05/22 09:06:00;;;;;;;7.03;4.78;;;34.80;58.40;;;;;;5030689;28;20029;-71
2023/05/22 09:08:27;;;;;;;12.95;5.75;;;34.50;59.70;;;;;;5030542;28;20050;-69
2023/05/22 09:10:56;;;;;;;14.48;5.10;;;35.20;58.20;;;;;;5030378;28;20569;-68
2023/05/22 09:13:27;;;;;;;6.95;4.80;;;35.20;56.30;;;;;;5030488;28;20135;-69
2023/05/22 09:15:58;;;;;;;10.45;5.03;;;35.00;58.40;;;;;;5032991;28;20033;-69
2023/05/22 09:18:26;;;;;;;9.85;5.40;;;35.10;57.50;;;;;;5034319;28;20495;-69
2023/05/22 09:20:56;;;;;;;8.38;4.97;;;35.20;56.80;;;;;;5035015;28;20030;-70
2023/05/22 09:23:24;;;;;;;10.45;4.97;;;35.00;57.10;;;;;;5034115;28;20050;-71
2023/05/22 09:25:54;;;;;;;9.77;4.88;;;35.00;57.20;;;;;;5034152;28;20040;-70
2023/05/22 09:28:20;;;;;;;7.38;4.97;;;35.60;56.40;;;;;;5034262;28;20304;-70
2023/05/22 09:30:54;;;;;;;12.27;5.63;;;35.00;56.70;;;;;;5034109;28;21210;-70
2023/05/22 09:33:21;;;;;;;8.00;4.60;;;34.50;55.90;;;;;;5033979;28;20472;-69
2023/05/22 09:35:48;;;;;;;12.70;4.75;;;34.80;56.50;;;;;;5034566;28;20208;-70
2023/05/22 09:38:14;;;;;;;13.05;5.50;;;35.10;55.00;;;;;;5033900;28;20522;-71
2023/05/22 09:40:40;;;;;;;7.78;4.63;;;33.90;56.50;;;;;;5033949;28;20033;-69
2023/05/22 09:43:07;;;;;;;9.10;4.78;;;33.70;56.20;;;;;;5034183;28;20057;-71
2023/05/22 09:45:37;;;;;;;8.20;5.77;;;33.30;56.10;;;;;;5034061;28;20037;-71
2023/05/22 09:48:05;;;;;;;10.45;5.22;;;32.90;57.40;;;;;;5034256;28;20026;-69
2023/05/22 09:50:31;;;;;;;8.95;5.07;;;32.70;57.70;;;;;;5015943;28;20117;-72
2023/05/22 09:53:01;;;;;;;10.82;4.72;;;32.00;58.40;;;;;;5033874;28;20026;-71
2023/05/22 09:55:28;;;;;;;23.98;6.30;;;31.70;59.20;;;;;;5033670;28;20029;-72
2023/05/22 09:57:54;;;;;;;8.23;5.22;;;31.50;59.70;;;;;;5033721;28;20033;-71
2023/05/22 10:00:22;;;;;;;11.00;5.15;;;31.00;60.00;;;;;;5033757;28;20021;-69
2023/05/22 10:02:54;;;;;;;11.85;5.22;;;30.80;60.80;;;;;;5034037;28;20032;-70
2023/05/22 10:05:21;;;;;;;8.77;5.30;;;30.80;60.10;;;;;;5033696;28;20371;-70
2023/05/22 10:07:49;;;;;;;15.85;4.82;;;30.70;60.00;;;;;;5016117;28;20029;-70
2023/05/22 10:10:20;;;;;;;9.77;5.28;;;30.50;60.50;;;;;;5033518;28;20029;-71
2023/05/22 10:12:59;;;;;;;8.15;5.07;;;30.10;61.20;;;;;;5033506;28;20092;-71
2023/05/22 10:15:26;;;;;;;9.30;5.18;;;30.00;61.80;;;;;;5033369;28;20041;-70
2023/05/22 10:17:52;;;;;;;9.93;4.97;;;30.10;62.10;;;;;;5034013;28;20172;-71
2023/05/22 10:20:19;;;;;;;11.00;5.53;;;30.00;62.30;;;;;;5033304;28;20376;-71
2023/05/22 10:22:47;;;;;;;17.80;4.82;;;29.60;63.10;;;;;;5033279;28;20122;-71
2023/05/22 10:25:13;;;;;;;11.90;6.10;;;29.60;63.10;;;;;;5033241;28;20049;-72
2023/05/22 10:27:39;;;;;;;9.80;5.30;;;29.20;63.80;;;;;;5033066;28;20146;-71
2023/05/22 10:30:23;;;;;;;8.70;5.88;;;29.30;63.60;;;;;;5033398;28;20026;-70
2023/05/22 10:32:57;;;;;;;7.20;4.78;;;29.10;64.80;;;;;;5033083;28;20407;-70
2023/05/22 10:36:03;;;;;;;7.68;5.60;;;29.40;64.20;;;;;;5032975;28;20041;-71
2023/05/22 10:38:32;;;;;;;14.67;6.50;;;29.30;64.70;;;;;;4952706;29;20043;-71
2023/05/22 10:40:59;;;;;;;8.00;5.15;;;29.20;64.80;;;;;;4952581;29;20054;-71
2023/05/22 10:43:30;;;;;;;9.00;4.77;;;29.40;64.60;;;;;;4993149;28;20444;-70
2023/05/22 10:46:03;;;;;;;9.40;4.90;;;29.50;64.10;;;;;;5032802;28;20112;-72
2023/05/22 10:48:35;;;;;;;8.13;5.00;;;29.40;63.90;;;;;;5032996;28;20025;-72
2023/05/22 10:51:01;;;;;;;9.65;5.70;;;29.40;63.70;;;;;;5033097;28;20030;-73
2023/05/22 10:53:31;;;;;;;9.13;5.07;;;29.50;63.90;;;;;;5032937;28;20038;-72
2023/05/22 10:56:01;;;;;;;8.73;5.93;;;29.40;64.20;;;;;;5015101;28;20109;-73
2023/05/22 10:58:39;;;;;;;7.13;5.15;;;29.40;65.10;;;;;;5032618;28;20471;-72
2023/05/22 11:01:14;;;;;;;12.48;5.20;;;29.50;64.80;;;;;;5032474;28;20106;-72
2023/05/22 11:04:10;;;;;;;7.65;5.25;;;29.40;64.40;;;;;;5032394;28;20109;-71
2023/05/22 11:06:45;;;;;;;11.07;5.18;;;29.30;64.40;;;;;;5032413;28;20029;-70
2023/05/22 11:09:28;;;;;;;7.10;5.78;;;29.20;64.80;;;;;;5032716;28;20029;-73
2023/05/22 11:12:23;;;;;;;9.80;5.70;;;29.40;64.70;;;;;;5032674;28;20288;-75
2023/05/22 11:14:55;;;;;;;11.60;5.60;;;29.40;65.30;;;;;;5023853;28;20041;-74
2023/05/22 11:17:31;;;;;;;7.38;4.95;;;29.10;65.60;;;;;;5032167;28;20029;-72
2023/05/22 11:20:17;;;;;;;11.38;6.45;;;29.20;65.00;;;;;;5032360;28;20029;-75
2023/05/22 11:22:49;;;;;;;14.55;5.75;;;29.20;65.00;;;;;;5019677;28;20046;-71
2023/05/22 11:25:17;;;;;;;9.00;5.05;;;29.30;65.20;;;;;;5012328;28;20483;-71
2023/05/22 11:27:43;;;;;;;9.80;5.38;;;29.20;65.00;;;;;;5012254;28;20040;-71
2023/05/22 11:30:11;;;;;;;10.18;5.28;;;29.10;65.00;;;;;;5012727;28;20044;-73
2023/05/22 11:32:38;;;;;;;7.78;5.78;;;29.10;65.60;;;;;;5011929;28;20502;-73
2023/05/22 11:35:06;;;;;;;10.02;5.53;;;29.00;65.70;;;;;;5012157;28;20038;-74
2023/05/22 11:37:32;;;;;;;9.85;5.63;;;29.00;65.40;;;;;;5011470;28;20034;-71
2023/05/22 11:40:02;;;;;;;8.98;5.40;;;29.00;65.90;;;;;;5012039;28;20139;-73
2023/05/22 11:42:28;;;;;;;8.02;5.75;;;29.00;66.00;;;;;;5011981;28;20101;-74
2023/05/22 11:44:55;;;;;;;8.52;5.10;;;28.90;66.50;;;;;;5012801;28;20113;-72
2023/05/22 11:47:20;;;;;;;7.93;5.20;;;29.00;66.50;;;;;;5011869;28;20029;-73
2023/05/22 11:49:46;;;;;;;8.10;5.20;;;28.90;66.00;;;;;;5011982;28;20037;-73
2023/05/22 11:52:12;;;;;;;10.93;5.55;;;29.00;66.40;;;;;;5011538;28;20073;-73
2023/05/22 11:54:38;;;;;;;9.43;5.70;;;29.10;66.40;;;;;;5011709;28;20048;-72
2023/05/22 11:57:08;;;;;;;8.40;5.70;;;29.00;66.20;;;;;;4994925;28;20149;-71
2023/05/22 11:59:34;;;;;;;8.60;5.43;;;29.00;66.20;;;;;;5011849;28;20034;-73
2023/05/22 12:01:59;;;;;;;9.48;5.45;;;28.90;66.60;;;;;;5011654;28;20095;-72
2023/05/22 12:04:25;;;;;;;8.93;5.25;;;29.00;66.70;;;;;;5011685;28;20049;-72
2023/05/22 12:06:52;;;;;;;6.88;4.90;;;28.90;66.90;;;;;;5011408;28;20034;-73
2023/05/22 12:09:17;;;;;;;8.93;6.10;;;28.80;67.20;;;;;;5011435;28;20030;-73
2023/05/22 12:11:47;;;;;;;11.48;5.72;;;28.90;67.30;;;;;;5011941;28;20026;-73
2023/05/22 12:14:13;;;;;;;6.38;5.28;;;29.00;66.80;;;;;;5010492;28;20037;-73
2023/05/22 12:16:39;;;;;;;6.90;5.18;;;28.80;66.90;;;;;;5002129;28;20052;-73
2023/05/22 12:19:09;;;;;;;11.27;5.22;;;28.90;67.10;;;;;;5001322;28;20044;-72
2023/05/22 12:21:36;;;;;;;10.00;5.68;;;28.90;67.30;;;;;;5027986;28;20064;-72
2023/05/22 12:24:05;;;;;;;9.55;5.57;;;29.00;67.20;;;;;;5011617;28;20034;-72
2023/05/22 12:26:31;;;;;;;15.18;5.57;;;28.90;66.30;;;;;;5030422;28;20080;-73
2023/05/22 12:28:57;;;;;;;8.20;4.68;;;28.80;66.70;;;;;;5016612;28;20030;-71
2023/05/22 12:31:24;;;;;;;9.88;5.25;;;28.80;66.40;;;;;;5020478;28;20383;-71
2023/05/22 12:33:56;;;;;;;7.75;5.00;;;28.80;66.40;;;;;;5025681;28;20034;-70
2023/05/22 12:36:39;;;;;;;5.10;4.60;;;28.70;66.60;;;;;;5012410;28;20054;-73
2023/05/22 12:39:31;;;;;;;8.43;5.63;;;28.70;66.20;;;;;;5031259;28;20053;-72
2023/05/22 12:41:57;;;;;;;6.65;5.30;;;28.60;66.20;;;;;;5027990;28;20047;-71
2023/05/22 12:44:22;;;;;;;6.25;5.60;;;28.70;66.80;;;;;;5030715;28;20036;-73